sensor_id;sensor_type;location;lat;lon;timestamp;P1;durP1;ratioP1;P2;durP2;ratioP2
24373;SDS011;12498;50.880;12.096;2023-02-03T00:00:20;6.82;;;2.50;;
24373;SDS011;12498;50.880;12.096;2023-02-03T00:02:46;3.65;;;2.33;;
24373;SDS011;12498;50.880;12.096;2023-02-03T00:05:12;6.53;;;2.63;;
24373;SDS011;12498;50.880;12.096;2023-02-03T00:07:37;3.88;;;2.33;;
24373;SDS011;12498;50.880;12.096;2023-02-03T00:10:04;6.90;;;2.40;;
24373;SDS011;12498;50.880;12.096;2023-02-03T00:12:31;4.55;;;2.00;;
24373;SDS011;12498;50.880;12.096;2023-02-03T00:14:57;5.15;;;2.20;;
24373;SDS011;12498;50.880;12.096;2023-02-03T00:17:23;5.43;;;2.58;;
24373;SDS011;12498;50.880;12.096;2023-02-03T00:19:49;3.70;;;2.22;;
24373;SDS011;12498;50.880;12.096;2023-02-03T00:22:14;6.85;;;2.67;;
24373;SDS011;12498;50.880;12.096;2023-02-03T00:24:40;6.25;;;2.45;;
24373;SDS011;12498;50.880;12.096;2023-02-03T00:27:05;5.82;;;2.72;;
24373;SDS011;12498;50.880;12.096;2023-02-03T00:29:31;4.97;;;2.75;;
24373;SDS011;12498;50.880;12.096;2023-02-03T00:31:57;6.13;;;2.47;;
24373;SDS011;12498;50.880;12.096;2023-02-03T00:34:26;5.65;;;2.58;;
24373;SDS011;12498;50.880;12.096;2023-02-03T00:36:54;6.95;;;2.60;;
24373;SDS011;12498;50.880;12.096;2023-02-03T00:39:19;6.13;;;2.72;;
24373;SDS011;12498;50.880;12.096;2023-02-03T00:41:45;5.55;;;2.75;;
24373;SDS011;12498;50.880;12.096;2023-02-03T00:44:11;3.35;;;1.90;;
24373;SDS011;12498;50.880;12.096;2023-02-03T00:46:37;3.55;;;1.88;;
24373;SDS011;12498;50.880;12.096;2023-02-03T00:49:03;4.25;;;2.00;;
24373;SDS011;12498;50.880;12.096;2023-02-03T00:51:30;4.53;;;2.30;;
24373;SDS011;12498;50.880;12.096;2023-02-03T00:53:56;2.72;;;1.80;;
24373;SDS011;12498;50.880;12.096;2023-02-03T00:56:21;2.90;;;1.98;;
24373;SDS011;12498;50.880;12.096;2023-02-03T00:58:47;6.13;;;2.00;;
24373;SDS011;12498;50.880;12.096;2023-02-03T01:01:13;4.15;;;2.40;;
24373;SDS011;12498;50.880;12.096;2023-02-03T01:03:38;5.05;;;2.10;;
24373;SDS011;12498;50.880;12.096;2023-02-03T01:06:14;4.90;;;2.28;;
24373;SDS011;12498;50.880;12.096;2023-02-03T01:08:43;2.85;;;1.83;;
24373;SDS011;12498;50.880;12.096;2023-02-03T01:11:10;4.53;;;2.10;;
24373;SDS011;12498;50.880;12.096;2023-02-03T01:13:41;3.95;;;2.00;;
24373;SDS011;12498;50.880;12.096;2023-02-03T01:16:11;3.17;;;1.83;;
24373;SDS011;12498;50.880;12.096;2023-02-03T01:18:38;2.80;;;2.05;;
24373;SDS011;12498;50.880;12.096;2023-02-03T01:21:09;2.75;;;1.65;;
24373;SDS011;12498;50.880;12.096;2023-02-03T01:23:37;3.85;;;1.95;;
24373;SDS011;12498;50.880;12.096;2023-02-03T01:26:04;4.13;;;2.38;;
24373;SDS011;12498;50.880;12.096;2023-02-03T01:31:07;5.20;;;2.30;;
24373;SDS011;12498;50.880;12.096;2023-02-03T01:33:37;4.57;;;2.40;;
24373;SDS011;12498;50.880;12.096;2023-02-03T01:36:10;4.47;;;1.73;;
24373;SDS011;12498;50.880;12.096;2023-02-03T01:38:37;3.30;;;1.75;;
24373;SDS011;12498;50.880;12.096;2023-02-03T01:41:05;2.35;;;1.65;;
24373;SDS011;12498;50.880;12.096;2023-02-03T01:43:37;2.83;;;1.70;;
24373;SDS011;12498;50.880;12.096;2023-02-03T01:49:40;4.07;;;1.75;;
24373;SDS011;12498;50.880;12.096;2023-02-03T01:51:48;4.20;;;1.90;;
24373;SDS011;12498;50.880;12.096;2023-02-03T01:54:18;3.97;;;1.75;;
24373;SDS011;12498;50.880;12.096;2023-02-03T01:56:52;2.90;;;1.55;;
24373;SDS011;12498;50.880;12.096;2023-02-03T01:59:20;3.67;;;1.77;;
24373;SDS011;12498;50.880;12.096;2023-02-03T02:01:48;4.00;;;1.92;;
24373;SDS011;12498;50.880;12.096;2023-02-03T02:04:16;2.88;;;1.63;;
24373;SDS011;12498;50.880;12.096;2023-02-03T02:06:41;5.45;;;2.10;;
24373;SDS011;12498;50.880;12.096;2023-02-03T02:09:09;3.28;;;1.45;;
24373;SDS011;12498;50.880;12.096;2023-02-03T02:11:35;3.53;;;1.40;;
24373;SDS011;12498;50.880;12.096;2023-02-03T02:14:01;3.20;;;1.40;;
24373;SDS011;12498;50.880;12.096;2023-02-03T02:24:05;2.85;;;1.48;;
24373;SDS011;12498;50.880;12.096;2023-02-03T02:27:01;4.72;;;1.67;;
24373;SDS011;12498;50.880;12.096;2023-02-03T02:30:01;4.45;;;1.83;;
24373;SDS011;12498;50.880;12.096;2023-02-03T02:32:57;5.30;;;2.05;;
24373;SDS011;12498;50.880;12.096;2023-02-03T02:41:25;7.75;;;3.47;;
24373;SDS011;12498;50.880;12.096;2023-02-03T02:44:09;3.28;;;2.30;;
24373;SDS011;12498;50.880;12.096;2023-02-03T02:51:56;4.95;;;2.20;;
24373;SDS011;12498;50.880;12.096;2023-02-03T02:54:25;2.58;;;1.70;;
24373;SDS011;12498;50.880;12.096;2023-02-03T02:56:54;3.22;;;1.75;;
24373;SDS011;12498;50.880;12.096;2023-02-03T02:59:23;3.97;;;1.88;;
24373;SDS011;12498;50.880;12.096;2023-02-03T03:01:49;2.63;;;1.95;;
24373;SDS011;12498;50.880;12.096;2023-02-03T03:04:16;4.88;;;1.90;;
24373;SDS011;12498;50.880;12.096;2023-02-03T03:06:55;3.25;;;2.13;;
24373;SDS011;12498;50.880;12.096;2023-02-03T03:09:32;3.50;;;2.13;;
24373;SDS011;12498;50.880;12.096;2023-02-03T03:12:08;3.42;;;2.08;;
24373;SDS011;12498;50.880;12.096;2023-02-03T03:14:34;4.82;;;2.72;;
24373;SDS011;12498;50.880;12.096;2023-02-03T03:17:05;9.00;;;4.57;;
24373;SDS011;12498;50.880;12.096;2023-02-03T03:19:36;5.30;;;2.40;;
24373;SDS011;12498;50.880;12.096;2023-02-03T03:22:06;4.30;;;2.50;;
24373;SDS011;12498;50.880;12.096;2023-02-03T03:24:44;3.95;;;2.55;;
24373;SDS011;12498;50.880;12.096;2023-02-03T03:32:22;8.68;;;2.85;;
24373;SDS011;12498;50.880;12.096;2023-02-03T03:34:48;6.30;;;3.05;;
24373;SDS011;12498;50.880;12.096;2023-02-03T03:37:19;4.15;;;2.90;;
24373;SDS011;12498;50.880;12.096;2023-02-03T03:42:56;5.25;;;3.38;;
24373;SDS011;12498;50.880;12.096;2023-02-03T03:45:41;6.55;;;3.70;;
24373;SDS011;12498;50.880;12.096;2023-02-03T03:48:33;6.00;;;3.67;;
24373;SDS011;12498;50.880;12.096;2023-02-03T03:51:05;6.07;;;3.97;;
24373;SDS011;12498;50.880;12.096;2023-02-03T03:53:37;14.20;;;5.07;;
24373;SDS011;12498;50.880;12.096;2023-02-03T03:56:07;8.35;;;4.40;;
24373;SDS011;12498;50.880;12.096;2023-02-03T03:58:38;8.07;;;4.22;;
24373;SDS011;12498;50.880;12.096;2023-02-03T04:01:09;6.60;;;4.57;;
24373;SDS011;12498;50.880;12.096;2023-02-03T04:03:42;7.38;;;4.50;;
24373;SDS011;12498;50.880;12.096;2023-02-03T04:06:11;10.95;;;5.30;;
24373;SDS011;12498;50.880;12.096;2023-02-03T04:08:37;10.93;;;5.72;;
24373;SDS011;12498;50.880;12.096;2023-02-03T04:11:03;8.90;;;5.50;;
24373;SDS011;12498;50.880;12.096;2023-02-03T04:13:30;9.23;;;5.40;;
24373;SDS011;12498;50.880;12.096;2023-02-03T04:15:55;10.50;;;5.43;;
24373;SDS011;12498;50.880;12.096;2023-02-03T04:18:21;10.40;;;5.90;;
24373;SDS011;12498;50.880;12.096;2023-02-03T04:20:47;12.32;;;6.07;;
24373;SDS011;12498;50.880;12.096;2023-02-03T04:23:12;12.40;;;7.80;;
24373;SDS011;12498;50.880;12.096;2023-02-03T04:25:38;13.35;;;7.15;;
24373;SDS011;12498;50.880;12.096;2023-02-03T04:28:04;12.65;;;7.55;;
24373;SDS011;12498;50.880;12.096;2023-02-03T04:30:30;9.25;;;6.55;;
24373;SDS011;12498;50.880;12.096;2023-02-03T04:32:56;16.33;;;7.20;;
24373;SDS011;12498;50.880;12.096;2023-02-03T04:35:22;10.55;;;6.80;;
24373;SDS011;12498;50.880;12.096;2023-02-03T04:37:48;17.08;;;7.30;;
24373;SDS011;12498;50.880;12.096;2023-02-03T04:40:13;13.52;;;7.38;;
24373;SDS011;12498;50.880;12.096;2023-02-03T04:42:39;12.88;;;6.97;;
24373;SDS011;12498;50.880;12.096;2023-02-03T04:45:05;14.57;;;8.10;;
24373;SDS011;12498;50.880;12.096;2023-02-03T04:47:32;14.30;;;7.10;;
24373;SDS011;12498;50.880;12.096;2023-02-03T04:49:58;13.63;;;7.07;;
24373;SDS011;12498;50.880;12.096;2023-02-03T04:52:24;11.00;;;6.75;;
24373;SDS011;12498;50.880;12.096;2023-02-03T04:54:50;9.88;;;6.78;;
24373;SDS011;12498;50.880;12.096;2023-02-03T04:57:16;10.75;;;6.80;;
24373;SDS011;12498;50.880;12.096;2023-02-03T04:59:41;9.50;;;6.55;;
24373;SDS011;12498;50.880;12.096;2023-02-03T05:02:07;11.98;;;6.93;;
24373;SDS011;12498;50.880;12.096;2023-02-03T05:04:33;11.93;;;7.60;;
24373;SDS011;12498;50.880;12.096;2023-02-03T05:06:58;11.88;;;6.78;;
24373;SDS011;12498;50.880;12.096;2023-02-03T05:09:25;10.70;;;6.70;;
24373;SDS011;12498;50.880;12.096;2023-02-03T05:11:50;10.63;;;6.63;;
24373;SDS011;12498;50.880;12.096;2023-02-03T05:14:16;12.25;;;6.88;;
24373;SDS011;12498;50.880;12.096;2023-02-03T05:16:42;13.70;;;7.18;;
24373;SDS011;12498;50.880;12.096;2023-02-03T05:19:08;11.88;;;6.55;;
24373;SDS011;12498;50.880;12.096;2023-02-03T05:21:34;14.25;;;6.95;;
24373;SDS011;12498;50.880;12.096;2023-02-03T05:23:59;12.55;;;7.35;;
24373;SDS011;12498;50.880;12.096;2023-02-03T05:26:27;12.18;;;6.95;;
24373;SDS011;12498;50.880;12.096;2023-02-03T05:28:52;8.73;;;5.72;;
24373;SDS011;12498;50.880;12.096;2023-02-03T05:31:18;12.07;;;6.70;;
24373;SDS011;12498;50.880;12.096;2023-02-03T05:33:43;11.00;;;6.47;;
24373;SDS011;12498;50.880;12.096;2023-02-03T05:36:09;9.55;;;6.20;;
24373;SDS011;12498;50.880;12.096;2023-02-03T05:38:35;9.82;;;5.63;;
24373;SDS011;12498;50.880;12.096;2023-02-03T05:41:00;7.63;;;5.10;;
24373;SDS011;12498;50.880;12.096;2023-02-03T05:43:45;10.07;;;4.95;;
24373;SDS011;12498;50.880;12.096;2023-02-03T05:46:11;13.63;;;7.32;;
24373;SDS011;12498;50.880;12.096;2023-02-03T05:48:36;13.32;;;5.93;;
24373;SDS011;12498;50.880;12.096;2023-02-03T05:51:02;9.00;;;4.78;;
24373;SDS011;12498;50.880;12.096;2023-02-03T05:53:28;8.27;;;5.15;;
24373;SDS011;12498;50.880;12.096;2023-02-03T05:55:53;9.00;;;4.25;;
24373;SDS011;12498;50.880;12.096;2023-02-03T05:58:19;7.40;;;4.10;;
24373;SDS011;12498;50.880;12.096;2023-02-03T06:00:45;7.57;;;4.10;;
24373;SDS011;12498;50.880;12.096;2023-02-03T06:03:11;5.82;;;3.50;;
24373;SDS011;12498;50.880;12.096;2023-02-03T06:05:37;4.20;;;3.00;;
24373;SDS011;12498;50.880;12.096;2023-02-03T06:08:05;5.18;;;2.63;;
24373;SDS011;12498;50.880;12.096;2023-02-03T06:10:32;3.88;;;2.63;;
24373;SDS011;12498;50.880;12.096;2023-02-03T06:12:57;6.47;;;3.33;;
24373;SDS011;12498;50.880;12.096;2023-02-03T06:15:23;3.72;;;2.38;;
24373;SDS011;12498;50.880;12.096;2023-02-03T06:17:49;4.75;;;2.38;;
24373;SDS011;12498;50.880;12.096;2023-02-03T06:20:16;3.97;;;2.30;;
24373;SDS011;12498;50.880;12.096;2023-02-03T06:22:43;5.63;;;2.50;;
24373;SDS011;12498;50.880;12.096;2023-02-03T06:25:09;3.33;;;2.38;;
24373;SDS011;12498;50.880;12.096;2023-02-03T06:27:36;3.03;;;2.28;;
24373;SDS011;12498;50.880;12.096;2023-02-03T06:30:02;5.20;;;2.78;;
24373;SDS011;12498;50.880;12.096;2023-02-03T06:32:28;5.35;;;2.67;;
24373;SDS011;12498;50.880;12.096;2023-02-03T06:34:53;4.35;;;2.35;;
24373;SDS011;12498;50.880;12.096;2023-02-03T06:37:19;3.72;;;2.17;;
24373;SDS011;12498;50.880;12.096;2023-02-03T06:39:44;8.50;;;3.22;;
24373;SDS011;12498;50.880;12.096;2023-02-03T06:42:10;3.40;;;1.80;;
24373;SDS011;12498;50.880;12.096;2023-02-03T06:44:36;4.93;;;2.00;;
24373;SDS011;12498;50.880;12.096;2023-02-03T06:47:01;4.30;;;2.25;;
24373;SDS011;12498;50.880;12.096;2023-02-03T06:49:27;3.95;;;2.28;;
24373;SDS011;12498;50.880;12.096;2023-02-03T06:51:53;3.42;;;2.42;;
24373;SDS011;12498;50.880;12.096;2023-02-03T06:54:19;4.40;;;2.65;;
24373;SDS011;12498;50.880;12.096;2023-02-03T06:56:45;3.88;;;2.50;;
24373;SDS011;12498;50.880;12.096;2023-02-03T06:59:11;5.85;;;2.88;;
24373;SDS011;12498;50.880;12.096;2023-02-03T07:01:37;3.92;;;2.22;;
24373;SDS011;12498;50.880;12.096;2023-02-03T07:04:03;6.00;;;2.80;;
24373;SDS011;12498;50.880;12.096;2023-02-03T07:06:29;4.35;;;2.65;;
24373;SDS011;12498;50.880;12.096;2023-02-03T07:08:58;6.32;;;2.88;;
24373;SDS011;12498;50.880;12.096;2023-02-03T07:11:24;4.25;;;2.33;;
24373;SDS011;12498;50.880;12.096;2023-02-03T07:13:50;3.67;;;2.40;;
24373;SDS011;12498;50.880;12.096;2023-02-03T07:16:16;5.82;;;2.47;;
24373;SDS011;12498;50.880;12.096;2023-02-03T07:18:42;5.07;;;2.70;;
24373;SDS011;12498;50.880;12.096;2023-02-03T07:21:08;4.85;;;3.00;;
24373;SDS011;12498;50.880;12.096;2023-02-03T07:23:34;8.05;;;3.13;;
24373;SDS011;12498;50.880;12.096;2023-02-03T07:26:00;4.45;;;2.60;;
24373;SDS011;12498;50.880;12.096;2023-02-03T07:28:28;5.78;;;3.20;;
24373;SDS011;12498;50.880;12.096;2023-02-03T07:30:58;4.35;;;2.83;;
24373;SDS011;12498;50.880;12.096;2023-02-03T07:33:24;7.75;;;3.90;;
24373;SDS011;12498;50.880;12.096;2023-02-03T07:35:51;11.30;;;3.95;;
24373;SDS011;12498;50.880;12.096;2023-02-03T07:38:18;7.30;;;3.60;;
24373;SDS011;12498;50.880;12.096;2023-02-03T07:40:44;7.63;;;3.28;;
24373;SDS011;12498;50.880;12.096;2023-02-03T07:43:09;4.72;;;3.00;;
24373;SDS011;12498;50.880;12.096;2023-02-03T07:45:35;6.75;;;3.20;;
24373;SDS011;12498;50.880;12.096;2023-02-03T07:48:01;4.65;;;2.78;;
24373;SDS011;12498;50.880;12.096;2023-02-03T07:50:26;7.38;;;3.45;;
24373;SDS011;12498;50.880;12.096;2023-02-03T07:52:52;8.23;;;3.33;;
24373;SDS011;12498;50.880;12.096;2023-02-03T07:55:19;5.90;;;3.05;;
24373;SDS011;12498;50.880;12.096;2023-02-03T07:57:46;5.20;;;2.92;;
24373;SDS011;12498;50.880;12.096;2023-02-03T08:00:12;5.40;;;3.38;;
24373;SDS011;12498;50.880;12.096;2023-02-03T08:02:42;7.95;;;3.65;;
24373;SDS011;12498;50.880;12.096;2023-02-03T08:05:08;9.27;;;3.70;;
24373;SDS011;12498;50.880;12.096;2023-02-03T08:07:35;5.70;;;3.45;;
24373;SDS011;12498;50.880;12.096;2023-02-03T08:10:00;5.97;;;3.40;;
24373;SDS011;12498;50.880;12.096;2023-02-03T08:12:27;9.55;;;3.67;;
24373;SDS011;12498;50.880;12.096;2023-02-03T08:14:52;8.07;;;3.47;;
24373;SDS011;12498;50.880;12.096;2023-02-03T08:17:18;6.35;;;3.10;;
24373;SDS011;12498;50.880;12.096;2023-02-03T08:19:44;8.10;;;3.20;;
24373;SDS011;12498;50.880;12.096;2023-02-03T08:22:09;5.43;;;3.17;;
24373;SDS011;12498;50.880;12.096;2023-02-03T08:24:43;6.65;;;3.10;;
24373;SDS011;12498;50.880;12.096;2023-02-03T08:27:14;7.55;;;3.00;;
24373;SDS011;12498;50.880;12.096;2023-02-03T08:29:40;7.22;;;3.35;;
24373;SDS011;12498;50.880;12.096;2023-02-03T08:32:11;6.97;;;3.03;;
24373;SDS011;12498;50.880;12.096;2023-02-03T08:34:38;6.07;;;2.97;;
24373;SDS011;12498;50.880;12.096;2023-02-03T08:37:03;6.07;;;3.10;;
24373;SDS011;12498;50.880;12.096;2023-02-03T08:39:30;4.97;;;2.75;;
24373;SDS011;12498;50.880;12.096;2023-02-03T08:41:56;6.43;;;2.88;;
24373;SDS011;12498;50.880;12.096;2023-02-03T08:44:21;6.15;;;3.08;;
24373;SDS011;12498;50.880;12.096;2023-02-03T08:46:50;9.50;;;3.45;;
24373;SDS011;12498;50.880;12.096;2023-02-03T08:49:17;8.98;;;2.92;;
24373;SDS011;12498;50.880;12.096;2023-02-03T08:51:44;9.68;;;3.45;;
24373;SDS011;12498;50.880;12.096;2023-02-03T08:54:11;6.13;;;3.05;;
24373;SDS011;12498;50.880;12.096;2023-02-03T08:56:37;9.65;;;3.40;;
24373;SDS011;12498;50.880;12.096;2023-02-03T08:59:02;6.57;;;2.75;;
24373;SDS011;12498;50.880;12.096;2023-02-03T09:01:28;8.93;;;3.03;;
24373;SDS011;12498;50.880;12.096;2023-02-03T09:03:54;9.00;;;3.30;;
24373;SDS011;12498;50.880;12.096;2023-02-03T09:06:20;6.82;;;2.97;;
24373;SDS011;12498;50.880;12.096;2023-02-03T09:08:46;8.80;;;3.10;;
24373;SDS011;12498;50.880;12.096;2023-02-03T09:11:12;8.13;;;3.15;;
24373;SDS011;12498;50.880;12.096;2023-02-03T09:13:39;6.65;;;2.88;;
24373;SDS011;12498;50.880;12.096;2023-02-03T09:16:10;10.65;;;2.90;;
24373;SDS011;12498;50.880;12.096;2023-02-03T09:18:43;7.22;;;2.85;;
24373;SDS011;12498;50.880;12.096;2023-02-03T09:21:10;7.18;;;3.20;;
24373;SDS011;12498;50.880;12.096;2023-02-03T09:23:37;9.18;;;3.22;;
24373;SDS011;12498;50.880;12.096;2023-02-03T09:26:04;6.53;;;3.28;;
24373;SDS011;12498;50.880;12.096;2023-02-03T09:28:37;8.07;;;3.30;;
24373;SDS011;12498;50.880;12.096;2023-02-03T09:31:04;9.07;;;3.08;;
24373;SDS011;12498;50.880;12.096;2023-02-03T09:33:31;4.27;;;2.50;;
24373;SDS011;12498;50.880;12.096;2023-02-03T09:35:58;8.75;;;2.40;;
24373;SDS011;12498;50.880;12.096;2023-02-03T09:38:24;8.95;;;2.88;;
24373;SDS011;12498;50.880;12.096;2023-02-03T09:40:54;5.78;;;3.20;;
24373;SDS011;12498;50.880;12.096;2023-02-03T09:45:49;10.68;;;3.10;;
24373;SDS011;12498;50.880;12.096;2023-02-03T09:48:18;7.45;;;3.17;;
24373;SDS011;12498;50.880;12.096;2023-02-03T09:50:48;6.07;;;3.03;;
24373;SDS011;12498;50.880;12.096;2023-02-03T09:53:24;9.75;;;3.30;;
24373;SDS011;12498;50.880;12.096;2023-02-03T09:55:57;5.47;;;2.60;;
24373;SDS011;12498;50.880;12.096;2023-02-03T09:58:23;7.65;;;2.80;;
24373;SDS011;12498;50.880;12.096;2023-02-03T10:00:55;6.82;;;2.42;;
24373;SDS011;12498;50.880;12.096;2023-02-03T10:06:15;6.13;;;2.80;;
24373;SDS011;12498;50.880;12.096;2023-02-03T10:11:25;6.20;;;2.45;;
24373;SDS011;12498;50.880;12.096;2023-02-03T10:19:35;9.50;;;4.22;;
24373;SDS011;12498;50.880;12.096;2023-02-03T10:22:02;4.68;;;2.65;;
24373;SDS011;12498;50.880;12.096;2023-02-03T10:24:41;12.15;;;5.70;;
24373;SDS011;12498;50.880;12.096;2023-02-03T10:27:16;8.18;;;2.78;;
24373;SDS011;12498;50.880;12.096;2023-02-03T10:29:47;9.95;;;5.25;;
24373;SDS011;12498;50.880;12.096;2023-02-03T10:32:29;4.45;;;2.10;;
24373;SDS011;12498;50.880;12.096;2023-02-03T10:34:55;7.60;;;4.00;;
24373;SDS011;12498;50.880;12.096;2023-02-03T10:39:59;7.25;;;2.30;;
24373;SDS011;12498;50.880;12.096;2023-02-03T10:42:26;9.77;;;5.97;;
24373;SDS011;12498;50.880;12.096;2023-02-03T10:45:13;17.65;;;8.18;;
24373;SDS011;12498;50.880;12.096;2023-02-03T10:47:41;12.38;;;5.35;;
24373;SDS011;12498;50.880;12.096;2023-02-03T10:50:16;7.60;;;3.10;;
24373;SDS011;12498;50.880;12.096;2023-02-03T10:52:44;4.38;;;2.10;;
24373;SDS011;12498;50.880;12.096;2023-02-03T10:57:51;13.65;;;5.35;;
24373;SDS011;12498;50.880;12.096;2023-02-03T11:00:22;6.22;;;2.83;;
24373;SDS011;12498;50.880;12.096;2023-02-03T11:02:57;5.90;;;2.83;;
24373;SDS011;12498;50.880;12.096;2023-02-03T11:05:29;7.53;;;3.92;;
24373;SDS011;12498;50.880;12.096;2023-02-03T11:07:54;7.18;;;3.30;;
24373;SDS011;12498;50.880;12.096;2023-02-03T11:15:36;2.80;;;2.05;;
24373;SDS011;12498;50.880;12.096;2023-02-03T11:18:02;6.03;;;3.08;;
24373;SDS011;12498;50.880;12.096;2023-02-03T11:20:28;5.55;;;2.53;;
24373;SDS011;12498;50.880;12.096;2023-02-03T11:22:53;5.30;;;2.70;;
24373;SDS011;12498;50.880;12.096;2023-02-03T11:25:24;5.28;;;1.75;;
24373;SDS011;12498;50.880;12.096;2023-02-03T11:27:56;7.45;;;3.20;;
24373;SDS011;12498;50.880;12.096;2023-02-03T11:30:29;1.73;;;1.33;;
24373;SDS011;12498;50.880;12.096;2023-02-03T11:32:54;6.97;;;3.05;;
24373;SDS011;12498;50.880;12.096;2023-02-03T11:35:25;3.20;;;1.50;;
24373;SDS011;12498;50.880;12.096;2023-02-03T11:37:57;5.07;;;1.90;;
24373;SDS011;12498;50.880;12.096;2023-02-03T11:40:30;3.30;;;1.40;;
24373;SDS011;12498;50.880;12.096;2023-02-03T11:43:00;7.65;;;2.72;;
24373;SDS011;12498;50.880;12.096;2023-02-03T11:50:56;9.15;;;3.78;;
24373;SDS011;12498;50.880;12.096;2023-02-03T12:17:37;3.60;;;1.50;;
24373;SDS011;12498;50.880;12.096;2023-02-03T12:26:33;4.32;;;1.50;;
24373;SDS011;12498;50.880;12.096;2023-02-03T12:29:26;5.60;;;1.77;;
24373;SDS011;12498;50.880;12.096;2023-02-03T12:34:49;4.43;;;1.30;;
24373;SDS011;12498;50.880;12.096;2023-02-03T12:37:57;4.95;;;1.70;;
24373;SDS011;12498;50.880;12.096;2023-02-03T12:40:28;3.35;;;1.50;;
24373;SDS011;12498;50.880;12.096;2023-02-03T12:43:20;2.72;;;1.70;;
24373;SDS011;12498;50.880;12.096;2023-02-03T12:46:04;2.90;;;1.40;;
24373;SDS011;12498;50.880;12.096;2023-02-03T12:48:44;5.38;;;1.70;;
24373;SDS011;12498;50.880;12.096;2023-02-03T12:51:34;3.03;;;1.50;;
24373;SDS011;12498;50.880;12.096;2023-02-03T12:54:19;5.72;;;1.73;;
24373;SDS011;12498;50.880;12.096;2023-02-03T12:57:12;2.13;;;1.40;;
24373;SDS011;12498;50.880;12.096;2023-02-03T12:59:40;4.88;;;1.80;;
24373;SDS011;12498;50.880;12.096;2023-02-03T13:02:13;6.28;;;1.80;;
24373;SDS011;12498;50.880;12.096;2023-02-03T13:13:02;2.30;;;1.50;;
24373;SDS011;12498;50.880;12.096;2023-02-03T13:15:33;3.85;;;1.65;;
24373;SDS011;12498;50.880;12.096;2023-02-03T13:20:52;5.45;;;2.30;;
24373;SDS011;12498;50.880;12.096;2023-02-03T13:23:18;7.47;;;2.47;;
24373;SDS011;12498;50.880;12.096;2023-02-03T13:32:14;3.65;;;2.00;;
24373;SDS011;12498;50.880;12.096;2023-02-03T13:42:57;2.15;;;1.58;;
24373;SDS011;12498;50.880;12.096;2023-02-03T13:45:33;4.75;;;2.53;;
24373;SDS011;12498;50.880;12.096;2023-02-03T13:48:16;4.70;;;1.70;;
24373;SDS011;12498;50.880;12.096;2023-02-03T13:51:16;7.88;;;2.08;;
24373;SDS011;12498;50.880;12.096;2023-02-03T13:53:45;8.23;;;1.48;;
24373;SDS011;12498;50.880;12.096;2023-02-03T13:56:20;6.78;;;1.60;;
24373;SDS011;12498;50.880;12.096;2023-02-03T13:59:01;7.22;;;1.95;;
24373;SDS011;12498;50.880;12.096;2023-02-03T14:04:00;10.13;;;2.72;;
24373;SDS011;12498;50.880;12.096;2023-02-03T14:09:52;9.73;;;2.03;;
24373;SDS011;12498;50.880;12.096;2023-02-03T14:20:01;14.45;;;3.20;;
24373;SDS011;12498;50.880;12.096;2023-02-03T14:22:29;13.32;;;2.60;;
24373;SDS011;12498;50.880;12.096;2023-02-03T14:24:56;17.77;;;2.70;;
24373;SDS011;12498;50.880;12.096;2023-02-03T14:27:28;15.95;;;2.85;;
24373;SDS011;12498;50.880;12.096;2023-02-03T14:30:28;17.30;;;2.58;;
24373;SDS011;12498;50.880;12.096;2023-02-03T14:32:48;15.43;;;2.95;;
24373;SDS011;12498;50.880;12.096;2023-02-03T14:35:17;16.15;;;2.95;;
24373;SDS011;12498;50.880;12.096;2023-02-03T14:37:50;13.80;;;3.15;;
24373;SDS011;12498;50.880;12.096;2023-02-03T14:46:06;18.30;;;3.67;;
24373;SDS011;12498;50.880;12.096;2023-02-03T14:49:01;16.83;;;3.28;;
24373;SDS011;12498;50.880;12.096;2023-02-03T14:59:48;24.33;;;3.67;;
24373;SDS011;12498;50.880;12.096;2023-02-03T15:02:35;21.13;;;3.92;;
24373;SDS011;12498;50.880;12.096;2023-02-03T15:08:50;19.92;;;3.90;;
24373;SDS011;12498;50.880;12.096;2023-02-03T15:10:57;17.70;;;3.28;;
24373;SDS011;12498;50.880;12.096;2023-02-03T15:13:27;20.02;;;3.15;;
24373;SDS011;12498;50.880;12.096;2023-02-03T15:15:59;19.60;;;3.22;;
24373;SDS011;12498;50.880;12.096;2023-02-03T15:18:29;20.08;;;2.88;;
24373;SDS011;12498;50.880;12.096;2023-02-03T15:20:56;21.87;;;3.63;;
24373;SDS011;12498;50.880;12.096;2023-02-03T15:23:23;20.23;;;3.20;;
24373;SDS011;12498;50.880;12.096;2023-02-03T15:25:55;19.92;;;3.38;;
24373;SDS011;12498;50.880;12.096;2023-02-03T15:28:25;26.27;;;3.42;;
24373;SDS011;12498;50.880;12.096;2023-02-03T15:30:54;21.95;;;3.83;;
24373;SDS011;12498;50.880;12.096;2023-02-03T15:33:26;23.10;;;3.58;;
24373;SDS011;12498;50.880;12.096;2023-02-03T15:35:55;20.98;;;3.67;;
24373;SDS011;12498;50.880;12.096;2023-02-03T15:38:26;20.80;;;3.53;;
24373;SDS011;12498;50.880;12.096;2023-02-03T15:40:59;25.67;;;3.85;;
24373;SDS011;12498;50.880;12.096;2023-02-03T15:43:31;23.70;;;3.70;;
24373;SDS011;12498;50.880;12.096;2023-02-03T15:48:41;23.25;;;3.67;;
24373;SDS011;12498;50.880;12.096;2023-02-03T15:51:20;21.25;;;3.13;;
24373;SDS011;12498;50.880;12.096;2023-02-03T15:56:32;24.15;;;4.00;;
24373;SDS011;12498;50.880;12.096;2023-02-03T15:59:01;32.33;;;8.57;;
24373;SDS011;12498;50.880;12.096;2023-02-03T16:01:27;19.27;;;3.58;;
24373;SDS011;12498;50.880;12.096;2023-02-03T16:03:54;22.23;;;3.80;;
24373;SDS011;12498;50.880;12.096;2023-02-03T16:06:22;23.77;;;3.60;;
24373;SDS011;12498;50.880;12.096;2023-02-03T16:08:53;28.67;;;4.18;;
24373;SDS011;12498;50.880;12.096;2023-02-03T16:13:46;19.27;;;3.92;;
24373;SDS011;12498;50.880;12.096;2023-02-03T16:16:32;23.95;;;3.78;;
24373;SDS011;12498;50.880;12.096;2023-02-03T16:19:16;22.33;;;3.65;;
24373;SDS011;12498;50.880;12.096;2023-02-03T16:29:49;20.95;;;3.65;;
24373;SDS011;12498;50.880;12.096;2023-02-03T16:33:09;20.10;;;3.50;;
24373;SDS011;12498;50.880;12.096;2023-02-03T16:35:57;25.23;;;6.03;;
24373;SDS011;12498;50.880;12.096;2023-02-03T16:38:45;23.23;;;4.20;;
24373;SDS011;12498;50.880;12.096;2023-02-03T16:41:30;15.90;;;3.75;;
24373;SDS011;12498;50.880;12.096;2023-02-03T16:44:14;25.73;;;4.57;;
24373;SDS011;12498;50.880;12.096;2023-02-03T16:47:00;18.83;;;3.53;;
24373;SDS011;12498;50.880;12.096;2023-02-03T16:49:44;29.70;;;4.82;;
24373;SDS011;12498;50.880;12.096;2023-02-03T16:52:28;19.35;;;4.95;;
24373;SDS011;12498;50.880;12.096;2023-02-03T16:54:54;30.20;;;5.30;;
24373;SDS011;12498;50.880;12.096;2023-02-03T16:57:20;25.38;;;4.90;;
24373;SDS011;12498;50.880;12.096;2023-02-03T16:59:46;30.45;;;4.28;;
24373;SDS011;12498;50.880;12.096;2023-02-03T17:02:11;19.92;;;4.10;;
24373;SDS011;12498;50.880;12.096;2023-02-03T17:04:37;20.55;;;5.10;;
24373;SDS011;12498;50.880;12.096;2023-02-03T17:07:03;27.73;;;4.82;;
24373;SDS011;12498;50.880;12.096;2023-02-03T17:09:29;24.67;;;4.38;;
24373;SDS011;12498;50.880;12.096;2023-02-03T17:11:59;25.13;;;4.80;;
24373;SDS011;12498;50.880;12.096;2023-02-03T17:14:26;30.08;;;5.97;;
24373;SDS011;12498;50.880;12.096;2023-02-03T17:16:52;27.13;;;4.93;;
24373;SDS011;12498;50.880;12.096;2023-02-03T17:19:17;23.80;;;4.82;;
24373;SDS011;12498;50.880;12.096;2023-02-03T17:21:44;20.77;;;3.95;;
24373;SDS011;12498;50.880;12.096;2023-02-03T17:24:11;25.15;;;4.57;;
24373;SDS011;12498;50.880;12.096;2023-02-03T17:26:37;22.45;;;4.32;;
24373;SDS011;12498;50.880;12.096;2023-02-03T17:29:03;18.73;;;3.58;;
24373;SDS011;12498;50.880;12.096;2023-02-03T17:31:29;21.80;;;4.35;;
24373;SDS011;12498;50.880;12.096;2023-02-03T17:33:55;23.17;;;4.20;;